Oriental Clematis — 9VJT5 — position and weather

sailwx.info

Track history (hours):
 
Tides and Currents Weather Stations Pressure Air Temp Water Temp Dewpoint Dewpoint Depression Visibility Wind Speed Wind Dir Waves Ship Positions

Oriental Clematis

Last reported at 2017-Jul-11 18:48 UTC. Time now 2017-Nov-18 23:40 UTC.
Position N 34°28' E 135°21'.
Warning: this ship's position is months out of date.

Length 134 m; draft 5.3 m.

Type: Ship (hazmat cat C). MMSI: 565157000.

Date/timePositionNaut miles runAvg speedWind from/ knotsBaromVisibWave heightAir tempDewpointWater temp
2017-Jul-11 18:48N 34°28' E 135°21'0 0.0
2017-Jul-11 18:18N 34°28' E 135°21'0 0.0
2017-Jul-11 18:00N 34°28' E 135°21'0 0.0
2017-Jul-11 17:24N 34°28' E 135°21'0 0.0
2017-Jul-11 17:00N 34°28' E 135°21'0 0.1
2017-Jul-11 16:30N 34°28' E 135°20'0 0.1
2017-Jul-11 16:00N 34°28' E 135°21'0 0.0
2017-Jul-11 15:24N 34°28' E 135°21'0 0.0
2017-Jul-11 14:48N 34°28' E 135°21'0 0.0
2017-Jul-11 14:30N 34°28' E 135°21'0 0.0
2017-Jul-10 22:38N 34°28' E 135°21'0 0.0
2017-Jul-10 21:32N 34°28' E 135°21'0 0.0
2017-Jul-10 21:26N 34°28' E 135°21'0 0.0
2017-Jul-10 20:44N 34°28' E 135°21'0 0.1
2017-Jul-10 20:26N 34°28' E 135°21'0 0.0
2017-Jul-10 19:56N 34°28' E 135°21'0 0.0
2017-Jul-10 19:26N 34°28' E 135°21'0 0.0
2017-Jul-10 18:50N 34°28' E 135°21'0 0.0
2017-Jul-10 18:26N 34°28' E 135°21'0 0.0
2017-Jul-10 17:50N 34°28' E 135°21'0 0.1
2017-Jul-10 16:38N 34°28' E 135°21'0 0.3
2017-Jul-10 16:26N 34°28' E 135°21'0 0.0
2017-Jul-10 15:50N 34°28' E 135°21'0 0.0
2017-Jul-10 15:20N 34°28' E 135°21'0 0.0
2017-Jul-10 14:56N 34°28' E 135°21'0 0.0
2017-Jul-10 14:08N 34°28' E 135°21'0 0.0
2017-Jul-10 13:56N 34°28' E 135°21'0 0.0
2017-Jul-10 13:26N 34°28' E 135°21'0 0.0
2017-Jul-09 11:56N 34°28' E 135°21'0 0.0
2017-Jul-09 11:20N 34°28' E 135°21'0 0.0
2017-Jul-09 10:56N 34°28' E 135°21'0 0.0
2017-Jul-09 05:20N 34°28' E 135°21'1 2.1
2017-Jul-09 05:01N 34°29' E 135°20'3 5.3
2017-Jul-09 04:31N 34°26' E 135°19'0 0.1
2017-Jul-08 23:19N 34°26' E 135°19'0 1.3
2017-Jul-08 22:56N 34°26' E 135°19'2 5.1
2017-Jul-08 22:31N 34°28' E 135°18'3 5.1
2017-Jul-08 22:00N 34°29' E 135°15'2 4.4
2017-Jul-08 21:31N 34°29' E 135°13'3 6.2
2017-Jul-08 21:00N 34°27' E 135°10'4 7.2
2017-Jul-08 20:30N 34°24' E 135°07'5 9.5
2017-Jul-08 20:01N 34°21' E 135°03'5 9.7
2017-Jul-08 19:30N 34°17' E 134°59'510.3
2017-Jul-08 19:00N 34°12' E 135°00'510.9
2017-Jul-08 18:30N 34°06' E 134°59'227 7.6
2017-Jul-07 12:36N 34°42' E 139°31'112.1
2017-Jul-07 12:30N 34°43' E 139°31'712.4
2017-Jul-07 11:57N 34°49' E 139°35'612.4
2017-Jul-07 11:30N 34°54' E 139°37'612.4
2017-Jul-07 11:00N 35°00' E 139°38'611.9
2017-Jul-07 10:30N 35°05' E 139°42'612.5
2017-Jul-07 10:00N 35°11' E 139°45'611.6
2017-Jul-07 09:30N 35°17' E 139°45'612.2
2017-Jul-07 09:00N 35°22' E 139°42'611.4
2017-Jul-07 08:30N 35°27' E 139°47'611.3
2017-Jul-07 08:00N 35°30' E 139°52'611.1
2017-Jul-07 07:30N 35°33' E 139°58'510.5
2017-Jul-07 07:00N 35°35' E 140°04'  
Track history (hours):
 
Tides and Currents Weather Stations Pressure Air Temp Water Temp Dewpoint Dewpoint Depression Visibility Wind Speed Wind Dir Waves Ship Positions

Oriental Clematis

Last reported at 2017-Jul-11 18:48 UTC. Time now 2017-Nov-18 23:40 UTC.
Position N 34°28' E 135°21'.
Warning: this ship's position is months out of date.

Length 134 m; draft 5.3 m.

Type: Ship (hazmat cat C). MMSI: 565157000.

Date/timePositionNaut miles runAvg speedWind from/ knotsBaromVisibWave heightAir tempDewpointWater temp
2017-Jul-11 18:48N 34°28' E 135°21'0 0.0
2017-Jul-11 18:18N 34°28' E 135°21'0 0.0
2017-Jul-11 18:00N 34°28' E 135°21'0 0.0
2017-Jul-11 17:24N 34°28' E 135°21'0 0.0
2017-Jul-11 17:00N 34°28' E 135°21'0 0.1
2017-Jul-11 16:30N 34°28' E 135°20'0 0.1
2017-Jul-11 16:00N 34°28' E 135°21'0 0.0
2017-Jul-11 15:24N 34°28' E 135°21'0 0.0
2017-Jul-11 14:48N 34°28' E 135°21'0 0.0
2017-Jul-11 14:30N 34°28' E 135°21'0 0.0
2017-Jul-10 22:38N 34°28' E 135°21'0 0.0
2017-Jul-10 21:32N 34°28' E 135°21'0 0.0
2017-Jul-10 21:26N 34°28' E 135°21'0 0.0
2017-Jul-10 20:44N 34°28' E 135°21'0 0.1
2017-Jul-10 20:26N 34°28' E 135°21'0 0.0
2017-Jul-10 19:56N 34°28' E 135°21'0 0.0
2017-Jul-10 19:26N 34°28' E 135°21'0 0.0
2017-Jul-10 18:50N 34°28' E 135°21'0 0.0
2017-Jul-10 18:26N 34°28' E 135°21'0 0.0
2017-Jul-10 17:50N 34°28' E 135°21'0 0.1
2017-Jul-10 16:38N 34°28' E 135°21'0 0.3
2017-Jul-10 16:26N 34°28' E 135°21'0 0.0
2017-Jul-10 15:50N 34°28' E 135°21'0 0.0
2017-Jul-10 15:20N 34°28' E 135°21'0 0.0
2017-Jul-10 14:56N 34°28' E 135°21'0 0.0
2017-Jul-10 14:08N 34°28' E 135°21'0 0.0
2017-Jul-10 13:56N 34°28' E 135°21'0 0.0
2017-Jul-10 13:26N 34°28' E 135°21'0 0.0
2017-Jul-09 11:56N 34°28' E 135°21'0 0.0
2017-Jul-09 11:20N 34°28' E 135°21'0 0.0
2017-Jul-09 10:56N 34°28' E 135°21'0 0.0
2017-Jul-09 05:20N 34°28' E 135°21'1 2.1
2017-Jul-09 05:01N 34°29' E 135°20'3 5.3
2017-Jul-09 04:31N 34°26' E 135°19'0 0.1
2017-Jul-08 23:19N 34°26' E 135°19'0 1.3
2017-Jul-08 22:56N 34°26' E 135°19'2 5.1
2017-Jul-08 22:31N 34°28' E 135°18'3 5.1
2017-Jul-08 22:00N 34°29' E 135°15'2 4.4
2017-Jul-08 21:31N 34°29' E 135°13'3 6.2
2017-Jul-08 21:00N 34°27' E 135°10'4 7.2
2017-Jul-08 20:30N 34°24' E 135°07'5 9.5
2017-Jul-08 20:01N 34°21' E 135°03'5 9.7
2017-Jul-08 19:30N 34°17' E 134°59'510.3
2017-Jul-08 19:00N 34°12' E 135°00'510.9
2017-Jul-08 18:30N 34°06' E 134°59'227 7.6
2017-Jul-07 12:36N 34°42' E 139°31'112.1
2017-Jul-07 12:30N 34°43' E 139°31'712.4
2017-Jul-07 11:57N 34°49' E 139°35'612.4
2017-Jul-07 11:30N 34°54' E 139°37'612.4
2017-Jul-07 11:00N 35°00' E 139°38'611.9
2017-Jul-07 10:30N 35°05' E 139°42'612.5
2017-Jul-07 10:00N 35°11' E 139°45'611.6
2017-Jul-07 09:30N 35°17' E 139°45'612.2
2017-Jul-07 09:00N 35°22' E 139°42'611.4
2017-Jul-07 08:30N 35°27' E 139°47'611.3
2017-Jul-07 08:00N 35°30' E 139°52'611.1
2017-Jul-07 07:30N 35°33' E 139°58'510.5
2017-Jul-07 07:00N 35°35' E 140°04'  

Dump ship's entire track history